MRSA weather

San Alberto Airport
Limón, Limon, Costa Rica

Public forecast

Using degrees Celsius for public forecast. Weather courtesy of forecast.io.

METAR (pilot weather report)

Closest report is Limon International Airport, 29.8 nm (55.2 km) ESE. Retrieved 2019/05/20 23:00 UTC (56 minutes ago):

MRLM 202300Z 07010KT 9999 BKN020 28/25 A2978

TAF (pilot weather forecast)

Closest forecast is Limon International Airport, 29.8 nm (55.2 km) ESE. Retrieved 2019/05/20 18:24 UTC (6 hours ago):

TAF MRLM 201700Z 2018/2118 06005KT 9999 FEW030 BKN100 TX31/2018Z TN23/2111Z TEMPO 2020/2100 DZ BECMG 2101/2103 25003KT RA BECMG 2112/2115 08005KT